Cebu, Philippines

4:19 PM PHT on December 29, 2014 (GMT +0800)
Best Western Plus Lex Cebu | Change Station
CLOSE
Current Station
Personal Weather Station
Location: Cebu, Cebu
Elevation: 157 ft
Nearby Weather Stations

Elev 157 ft 10.32 °N, 123.89 °E | Updated 2 seconds ago

Light Rain
Light Rain
76.9 °F
Feels Like 78 °F
N
7.0
Wind Variable Wind from WNW
Gusts 23.0 mph

Today
High -- | Low -- °F
--% Chance of Precip.
Yesterday
High -- | Low -- °F
Precip. -- in
6:00 AM 5:31 PM
First Quarter, 56% visible
Pressure 29.62 in
Visibility 3.7 miles
Clouds Scattered Clouds 2000 ft
Overcast 9000 ft
Heat Index 78 °F
Dew Point 74 °F
Humidity 91%
Rainfall 0.05 in
Snow Depth Not available.
UV 1 out of 12
Pollen Not available.
Air Quality Not available.
Flu Activity Not available.
METAR RPVM 290800Z 35010KT 6000 -RA SCT020 OVC090 25/24 Q1003 A2961

More Conditions Fewer Conditions

Pressure 29.62 in
Visibility 3.7 miles
Clouds Scattered Clouds 2000 ft
Overcast 9000 ft
Heat Index 78 °F
Dew Point 74 °F
Humidity 91%
Rainfall 0.05 in
Snow Depth Not available.
UV 1 out of 12
Pollen Not available.
Air Quality Not available.
Flu Activity Not available.
METAR RPVM 290800Z 35010KT 6000 -RA SCT020 OVC090 25/24 Q1003 A2961

More Conditions Fewer Conditions

10-Day Weather Forecast

Almanac

Astronomy

Dec. 29, 2014 Rise Set
Actual Time
Civil Twilight
Nautical Twilight
Astronomical Twilight
Moon
Length of Visible Light
Length of Day
Tomorrow will be .
, % of the Moon is Illuminated

Today's Extremes

Country Highs Country Lows

Community

WunderPhotos

Upload Photos

1,781,553 photos uploaded!

WunderBlogs® & News

Nearby

Air Quality

  Air Quality AQ Index Pollutant
Not available.

Snow Depth

Station Depth Elevation

Earthquake Activity

City Distance Mag. Time & Date
Minimum magnitude displayed is 2.5.

Coastal Water Temperatures

Place Temperature

Nearby Weather Stations